METAR LOCAUX

2021/09/26 19:30 LFST 261930Z AUTO 24004KT CAVOK 15/13 Q1018 TEMPO FEW030CB
2021/09/26 19:20 EDSB 261920Z VRB01KT CAVOK 17/16 Q1018
2021/09/26 19:30 LFGA 261930Z AUTO 28006KT CAVOK 17/13 Q1018
www.noaa.gov

Ne pas utiliser pour préparer ou effectuer un vol: Utilisez la documentation officielle disponible sur aviation.meteo.fr (Aéroweb)


"Le soleil du matin ne dure pas forcément toute la journée."

Animation satellite IR

Meteociel.fr

"Derrière chaque nuage se cache le ciel bleu."

Radar pluie

Infoclimat.fr

"Si tu veux l’arc-en-ciel, tu dois supporter la pluie."
Dolly Parton

Nébulosité (octas)

Meteociel.fr

"Le soleil est souvent obscurci par les nuages et la raison par les passions."
Démophile

Impacts de foudre

www.meteo60.fr

"Celui que frappe la foudre n'entend pas le tonnerre."

Vigilance météo

vigilance-meteo.fr

"Tout nuage n'enfante pas une tempête."
William Shakespeare

TAF locaux

2021/09/26 18:21 TAF LFST 261700Z 2618/2718 VRB03KT CAVOK PROB40 TEMPO 2618/2622 -SHRA FEW030CB TEMPO 2701/2709 3000 BR PROB30 TEMPO 2703/2708 0500 FG VV///
2021/09/26 18:30 TAF EDSB 261700Z 2618/2718 VRB03KT 9999 FEW040 PROB30 TEMPO 2619/2620 19012KT 4000 SHRA SCT030CB PROB30 TEMPO 2700/2707 3000 BCFG BECMG 2708/2710 22006KT
www.noaa.gov

Ne pas utiliser pour préparer ou effectuer un vol: Utilisez la documentation officielle disponible sur aviation.meteo.fr (Aéroweb)


"Les jours où le ciel est gris, le soleil n'a pas disparu à tout jamais."
Arnaud Desjardins

Prévisions 7 jours


Meteoblue.com

"Quand les crapauds chantent, le beau temps s'avance !"